sensor_id;sensor_type;location;lat;lon;timestamp;pressure;altitude;pressure_sealevel;temperature;humidity
26839;BME280;40088;51.214;6.786;2024-01-16T00:08:21;100580.91;;;12.84;45.60
26839;BME280;40088;51.214;6.786;2024-01-16T00:18:21;100597.31;;;12.84;45.54
26839;BME280;40088;51.214;6.786;2024-01-16T00:28:21;100597.31;;;12.84;45.56
26839;BME280;40088;51.214;6.786;2024-01-16T00:38:22;100593.91;;;12.82;45.49
26839;BME280;40088;51.214;6.786;2024-01-16T00:48:22;100611.00;;;12.84;45.54
26839;BME280;40088;51.214;6.786;2024-01-16T00:58:23;100617.50;;;12.83;45.52
26839;BME280;40088;51.214;6.786;2024-01-16T01:08:23;100619.38;;;12.82;45.61
26839;BME280;40088;51.214;6.786;2024-01-16T01:18:23;100639.38;;;12.83;45.68
26839;BME280;40088;51.214;6.786;2024-01-16T01:28:24;100625.84;;;12.81;45.61
26839;BME280;40088;51.214;6.786;2024-01-16T01:38:24;100635.94;;;12.81;45.69
26839;BME280;40088;51.214;6.786;2024-01-16T01:48:27;100646.03;;;12.80;45.64
26839;BME280;40088;51.214;6.786;2024-01-16T01:58:43;100641.41;;;12.81;45.54
26839;BME280;40088;51.214;6.786;2024-01-16T02:08:44;100655.94;;;12.81;45.75
26839;BME280;40088;51.214;6.786;2024-01-16T02:18:58;100647.91;;;12.80;45.76
26839;BME280;40088;51.214;6.786;2024-01-16T02:29:01;100658.84;;;12.80;45.65
26839;BME280;40088;51.214;6.786;2024-01-16T02:39:05;100647.91;;;12.80;45.65
26839;BME280;40088;51.214;6.786;2024-01-16T02:49:06;100653.38;;;12.80;45.69
26839;BME280;40088;51.214;6.786;2024-01-16T02:59:16;100644.31;;;12.79;45.61
26839;BME280;40088;51.214;6.786;2024-01-16T03:09:16;100639.72;;;12.80;45.58
26839;BME280;40088;51.214;6.786;2024-01-16T03:19:17;100637.16;;;12.78;45.64
26839;BME280;40088;51.214;6.786;2024-01-16T03:29:17;100644.31;;;12.79;45.54
26839;BME280;40088;51.214;6.786;2024-01-16T03:39:17;100637.16;;;12.78;45.62
26839;BME280;40088;51.214;6.786;2024-01-16T03:49:18;100636.31;;;12.77;45.65
26839;BME280;40088;51.214;6.786;2024-01-16T03:59:18;100645.34;;;12.78;45.78
26839;BME280;40088;51.214;6.786;2024-01-16T04:09:19;100648.09;;;12.78;45.59
26839;BME280;40088;51.214;6.786;2024-01-16T04:19:22;100647.25;;;12.77;45.95
26839;BME280;40088;51.214;6.786;2024-01-16T04:29:22;100642.63;;;12.78;45.80
26839;BME280;40088;51.214;6.786;2024-01-16T04:39:23;100640.91;;;12.77;45.81
26839;BME280;40088;51.214;6.786;2024-01-16T04:49:23;100650.81;;;12.78;45.79
26839;BME280;40088;51.214;6.786;2024-01-16T04:59:24;100648.09;;;12.78;45.83
26839;BME280;40088;51.214;6.786;2024-01-16T05:09:24;100643.66;;;12.77;45.70
26839;BME280;40088;51.214;6.786;2024-01-16T05:19:24;100632.72;;;12.77;45.79
26839;BME280;40088;51.214;6.786;2024-01-16T05:29:25;100643.66;;;12.77;45.81
26839;BME280;40088;51.214;6.786;2024-01-16T05:39:30;100636.31;;;12.77;45.80
26839;BME280;40088;51.214;6.786;2024-01-16T05:49:34;100624.53;;;12.77;46.08
26839;BME280;40088;51.214;6.786;2024-01-16T05:59:34;100608.13;;;12.77;45.72
26839;BME280;40088;51.214;6.786;2024-01-16T06:09:43;100600.91;;;12.76;45.84
26839;BME280;40088;51.214;6.786;2024-01-16T06:19:43;100609.97;;;12.76;45.67
26839;BME280;40088;51.214;6.786;2024-01-16T06:29:43;100609.97;;;12.76;45.57
26839;BME280;40088;51.214;6.786;2024-01-16T06:39:44;100613.59;;;12.77;45.72
26839;BME280;40088;51.214;6.786;2024-01-16T06:49:44;100620.91;;;12.76;45.76
26839;BME280;40088;51.214;6.786;2024-01-16T06:59:44;100632.72;;;12.77;45.73
26839;BME280;40088;51.214;6.786;2024-01-16T07:09:48;100644.66;;;12.76;45.55
26839;BME280;40088;51.214;6.786;2024-01-16T07:19:51;100647.38;;;12.76;45.58
26839;BME280;40088;51.214;6.786;2024-01-16T07:29:51;100661.06;;;12.76;45.48
26839;BME280;40088;51.214;6.786;2024-01-16T07:39:52;100662.09;;;12.75;45.44
26839;BME280;40088;51.214;6.786;2024-01-16T07:49:52;100670.28;;;12.75;45.41
26839;BME280;40088;51.214;6.786;2024-01-16T07:59:52;100673.88;;;12.75;45.25
26839;BME280;40088;51.214;6.786;2024-01-16T08:09:52;100673.03;;;12.75;45.04
26839;BME280;40088;51.214;6.786;2024-01-16T08:19:53;100673.03;;;12.75;45.14
26839;BME280;40088;51.214;6.786;2024-01-16T08:29:53;100684.16;;;12.73;45.10
26839;BME280;40088;51.214;6.786;2024-01-16T08:39:53;100691.50;;;12.73;44.86
26839;BME280;40088;51.214;6.786;2024-01-16T08:50:05;100690.47;;;12.74;44.83
26839;BME280;40088;51.214;6.786;2024-01-16T09:00:09;100694.22;;;12.73;44.99
26839;BME280;40088;51.214;6.786;2024-01-16T09:10:26;100699.69;;;12.73;44.87
26839;BME280;40088;51.214;6.786;2024-01-16T09:20:26;100696.97;;;12.73;44.61
26839;BME280;40088;51.214;6.786;2024-01-16T09:30:26;100694.38;;;12.71;44.63
26839;BME280;40088;51.214;6.786;2024-01-16T09:40:27;100684.31;;;12.72;44.47
26839;BME280;40088;51.214;6.786;2024-01-16T09:50:27;100691.66;;;12.71;44.38
26839;BME280;40088;51.214;6.786;2024-01-16T10:00:28;100686.19;;;12.71;44.39
26839;BME280;40088;51.214;6.786;2024-01-16T10:10:28;100675.25;;;12.71;44.38
26839;BME280;40088;51.214;6.786;2024-01-16T10:20:52;100668.06;;;12.70;44.39
26839;BME280;40088;51.214;6.786;2024-01-16T10:31:01;100662.44;;;12.72;44.35
26839;BME280;40088;51.214;6.786;2024-01-16T10:41:06;100633.22;;;12.72;44.44
26839;BME280;40088;51.214;6.786;2024-01-16T10:51:10;100646.06;;;12.72;44.42
26839;BME280;40088;51.214;6.786;2024-01-16T11:01:15;100647.06;;;12.71;44.30
26839;BME280;40088;51.214;6.786;2024-01-16T11:11:15;100637.84;;;12.72;44.34
26839;BME280;40088;51.214;6.786;2024-01-16T11:21:16;100618.00;;;12.70;44.28
26839;BME280;40088;51.214;6.786;2024-01-16T11:31:33;100648.09;;;12.70;44.08
26839;BME280;40088;51.214;6.786;2024-01-16T11:41:56;100647.06;;;12.71;44.24
26839;BME280;40088;51.214;6.786;2024-01-16T11:51:56;100623.47;;;12.70;44.29
26839;BME280;40088;51.214;6.786;2024-01-16T12:02:00;100610.66;;;12.70;44.17
26839;BME280;40088;51.214;6.786;2024-01-16T12:12:05;100600.75;;;12.69;44.14
26839;BME280;40088;51.214;6.786;2024-01-16T12:22:13;100568.78;;;12.70;44.25
26839;BME280;40088;51.214;6.786;2024-01-16T12:32:13;100551.53;;;12.69;44.03
26839;BME280;40088;51.214;6.786;2024-01-16T12:42:15;100535.16;;;12.69;43.97
26839;BME280;40088;51.214;6.786;2024-01-16T12:52:21;100541.47;;;12.70;44.08
26839;BME280;40088;51.214;6.786;2024-01-16T13:02:25;100544.19;;;12.70;43.99
26839;BME280;40088;51.214;6.786;2024-01-16T13:12:25;100533.25;;;12.70;43.80
26839;BME280;40088;51.214;6.786;2024-01-16T13:22:30;100535.16;;;12.69;44.03
26839;BME280;40088;51.214;6.786;2024-01-16T13:32:36;100517.88;;;12.69;44.01
26839;BME280;40088;51.214;6.786;2024-01-16T13:42:45;100526.09;;;12.69;43.87
26839;BME280;40088;51.214;6.786;2024-01-16T13:52:46;100517.88;;;12.69;43.85
26839;BME280;40088;51.214;6.786;2024-01-16T14:02:47;100506.94;;;12.69;43.77
26839;BME280;40088;51.214;6.786;2024-01-16T14:12:51;100508.84;;;12.68;43.71
26839;BME280;40088;51.214;6.786;2024-01-16T14:22:51;100488.84;;;12.68;43.72
26839;BME280;40088;51.214;6.786;2024-01-16T14:32:52;100477.91;;;12.68;43.55
26839;BME280;40088;51.214;6.786;2024-01-16T14:42:54;100475.19;;;12.68;43.52
26839;BME280;40088;51.214;6.786;2024-01-16T14:52:56;100467.84;;;12.68;43.60
26839;BME280;40088;51.214;6.786;2024-01-16T15:02:56;100465.09;;;12.68;43.47
26839;BME280;40088;51.214;6.786;2024-01-16T15:12:59;100448.69;;;12.68;43.58
26839;BME280;40088;51.214;6.786;2024-01-16T15:23:00;100431.44;;;12.68;43.51
26839;BME280;40088;51.214;6.786;2024-01-16T15:33:00;100451.63;;;12.67;43.52
26839;BME280;40088;51.214;6.786;2024-01-16T15:43:00;100463.22;;;12.69;43.50
26839;BME280;40088;51.214;6.786;2024-01-16T15:53:00;100472.44;;;12.68;43.50
26839;BME280;40088;51.214;6.786;2024-01-16T16:03:01;100478.78;;;12.68;44.06
26839;BME280;40088;51.214;6.786;2024-01-16T16:13:01;100480.66;;;12.68;43.41
26839;BME280;40088;51.214;6.786;2024-01-16T16:23:03;100482.34;;;12.69;43.74
26839;BME280;40088;51.214;6.786;2024-01-16T16:33:03;100487.81;;;12.69;43.70
26839;BME280;40088;51.214;6.786;2024-01-16T16:43:04;100496.03;;;12.69;43.75
26839;BME280;40088;51.214;6.786;2024-01-16T16:53:04;100477.91;;;12.68;43.68
26839;BME280;40088;51.214;6.786;2024-01-16T17:03:06;100468.69;;;12.69;43.87
26839;BME280;40088;51.214;6.786;2024-01-16T17:13:07;100468.69;;;12.69;43.79
26839;BME280;40088;51.214;6.786;2024-01-16T17:23:09;100463.22;;;12.69;43.93
26839;BME280;40088;51.214;6.786;2024-01-16T17:33:10;100446.81;;;12.69;43.79
26839;BME280;40088;51.214;6.786;2024-01-16T17:43:10;100444.94;;;12.69;43.87
26839;BME280;40088;51.214;6.786;2024-01-16T17:53:10;100441.34;;;12.69;43.92
26839;BME280;40088;51.214;6.786;2024-01-16T18:03:11;100419.47;;;12.69;43.98
26839;BME280;40088;51.214;6.786;2024-01-16T18:13:12;100399.50;;;12.68;43.82
26839;BME280;40088;51.214;6.786;2024-01-16T18:23:14;100403.06;;;12.69;43.93
26839;BME280;40088;51.214;6.786;2024-01-16T18:33:15;100393.19;;;12.68;43.80
26839;BME280;40088;51.214;6.786;2024-01-16T18:43:15;100371.31;;;12.68;43.84
26839;BME280;40088;51.214;6.786;2024-01-16T18:53:16;100353.03;;;12.68;43.81
26839;BME280;40088;51.214;6.786;2024-01-16T19:03:17;100362.91;;;12.69;43.93
26839;BME280;40088;51.214;6.786;2024-01-16T19:13:19;100354.91;;;12.68;43.89
26839;BME280;40088;51.214;6.786;2024-01-16T19:23:20;100351.13;;;12.69;43.70
26839;BME280;40088;51.214;6.786;2024-01-16T19:33:21;100342.09;;;12.68;43.89
26839;BME280;40088;51.214;6.786;2024-01-16T19:43:21;100335.59;;;12.69;43.87
26839;BME280;40088;51.214;6.786;2024-01-16T19:53:22;100321.06;;;12.69;43.71
26839;BME280;40088;51.214;6.786;2024-01-16T20:03:24;100301.94;;;12.69;43.77
26839;BME280;40088;51.214;6.786;2024-01-16T20:13:24;100285.72;;;12.67;43.88
26839;BME280;40088;51.214;6.786;2024-01-16T20:23:24;100277.31;;;12.69;43.71
26839;BME280;40088;51.214;6.786;2024-01-16T20:33:25;100280.91;;;12.69;43.68
26839;BME280;40088;51.214;6.786;2024-01-16T20:43:25;100278.19;;;12.69;44.03
26839;BME280;40088;51.214;6.786;2024-01-16T20:53:31;100276.47;;;12.68;43.59
26839;BME280;40088;51.214;6.786;2024-01-16T21:03:35;100273.75;;;12.68;43.52
26839;BME280;40088;51.214;6.786;2024-01-16T21:13:38;100265.53;;;12.68;43.41
26839;BME280;40088;51.214;6.786;2024-01-16T21:23:41;100251.88;;;12.68;43.59
26839;BME280;40088;51.214;6.786;2024-01-16T21:34:02;100228.13;;;12.69;43.48
26839;BME280;40088;51.214;6.786;2024-01-16T21:44:11;100194.47;;;12.68;43.55
26839;BME280;40088;51.214;6.786;2024-01-16T21:54:19;100173.44;;;12.69;43.60
26839;BME280;40088;51.214;6.786;2024-01-16T22:04:20;100147.16;;;12.68;43.48
26839;BME280;40088;51.214;6.786;2024-01-16T22:14:41;100142.53;;;12.68;43.34
26839;BME280;40088;51.214;6.786;2024-01-16T22:24:55;100139.81;;;12.68;43.41
26839;BME280;40088;51.214;6.786;2024-01-16T22:35:15;100138.75;;;12.69;43.38
26839;BME280;40088;51.214;6.786;2024-01-16T22:45:16;100126.13;;;12.68;43.35
26839;BME280;40088;51.214;6.786;2024-01-16T22:55:34;100101.53;;;12.68;43.35
26839;BME280;40088;51.214;6.786;2024-01-16T23:05:35;100099.66;;;12.69;43.36
26839;BME280;40088;51.214;6.786;2024-01-16T23:15:35;100094.19;;;12.69;43.27
26839;BME280;40088;51.214;6.786;2024-01-16T23:25:36;100064.97;;;12.69;43.32
26839;BME280;40088;51.214;6.786;2024-01-16T23:35:36;100042.25;;;12.69;43.23
26839;BME280;40088;51.214;6.786;2024-01-16T23:45:37;100031.31;;;12.69;43.16
26839;BME280;40088;51.214;6.786;2024-01-16T23:55:40;100002.28;;;12.68;43.30
